createdAt,value
2023-04-10T00:00:00.110Z,6.28
2023-04-10T00:04:55.004Z,7.55
2023-04-10T00:07:21.881Z,7.82
2023-04-10T00:09:48.822Z,9.30
2023-04-10T00:12:15.810Z,8.48
2023-04-10T00:17:09.600Z,9.65
2023-04-10T00:19:36.606Z,8.45
2023-04-10T00:24:30.448Z,8.95
2023-04-10T00:26:57.703Z,8.38
2023-04-10T00:29:25.792Z,8.10
2023-04-10T00:31:53.238Z,8.02
2023-04-10T00:34:20.477Z,10.18
2023-04-10T00:36:47.951Z,9.02
2023-04-10T00:39:15.732Z,9.38
2023-04-10T00:41:44.363Z,8.05
2023-04-10T00:44:11.974Z,8.27
2023-04-10T00:46:41.637Z,7.57
2023-04-10T00:49:09.802Z,8.27
2023-04-10T00:51:37.960Z,8.05
2023-04-10T00:54:06.791Z,8.38
2023-04-10T00:56:34.010Z,7.88
2023-04-10T00:59:04.065Z,8.13
2023-04-10T01:01:32.306Z,8.63
2023-04-10T01:06:59.788Z,7.95
2023-04-10T01:09:44.991Z,7.30
2023-04-10T01:12:25.915Z,9.07
2023-04-10T01:15:07.959Z,9.38
2023-04-10T01:17:49.843Z,8.63
2023-04-10T01:20:21.250Z,8.50
2023-04-10T01:23:10.257Z,9.02
2023-04-10T01:25:52.153Z,8.25
2023-04-10T01:28:19.231Z,7.85
2023-04-10T01:30:54.002Z,8.38
2023-04-10T01:33:26.540Z,8.25
2023-04-10T01:35:57.813Z,9.43
2023-04-10T01:38:28.918Z,7.95
2023-04-10T01:41:00.069Z,8.43
2023-04-10T01:43:32.272Z,8.77
2023-04-10T01:46:01.236Z,9.85
2023-04-10T01:48:28.506Z,8.40
2023-04-10T01:50:57.395Z,8.35
2023-04-10T01:53:25.787Z,8.35
2023-04-10T01:55:53.853Z,8.00
2023-04-10T01:58:21.795Z,8.57
2023-04-10T02:00:49.204Z,7.93
2023-04-10T02:03:18.222Z,8.52
2023-04-10T02:06:19.218Z,8.35
2023-04-10T02:08:54.139Z,8.70
2023-04-10T02:11:32.417Z,7.22
2023-04-10T02:14:04.293Z,8.02
2023-04-10T02:16:35.538Z,7.50
2023-04-10T02:19:08.066Z,7.85
2023-04-10T02:21:40.294Z,7.95
2023-04-10T02:24:12.054Z,8.02
2023-04-10T02:26:55.966Z,8.68
2023-04-10T02:29:25.184Z,8.48
2023-04-10T02:31:53.561Z,8.38
2023-04-10T02:34:23.075Z,7.75
2023-04-10T02:36:50.862Z,8.20
2023-04-10T02:39:21.362Z,7.72
2023-04-10T02:41:56.241Z,7.90
2023-04-10T02:44:28.481Z,8.82
2023-04-10T02:46:56.614Z,7.35
2023-04-10T02:49:23.772Z,9.13
2023-04-10T02:51:51.365Z,7.55
2023-04-10T02:54:18.528Z,8.30
2023-04-10T02:56:45.720Z,7.97
2023-04-10T03:01:41.428Z,7.68
2023-04-10T03:04:09.311Z,8.05
2023-04-10T03:06:39.335Z,10.02
2023-04-10T03:11:34.332Z,8.52
2023-04-10T03:14:01.637Z,7.15
2023-04-10T03:16:31.910Z,8.25
2023-04-10T03:19:06.736Z,7.32
2023-04-10T03:21:33.948Z,8.05
2023-04-10T03:24:01.318Z,8.45
2023-04-10T03:26:28.339Z,8.43
2023-04-10T03:28:55.396Z,8.60
2023-04-10T03:33:50.454Z,8.35
2023-04-10T03:36:17.702Z,7.72
2023-04-10T03:38:45.898Z,9.10
2023-04-10T03:41:14.329Z,8.30
2023-04-10T03:43:41.465Z,7.72
2023-04-10T03:46:08.895Z,7.60
2023-04-10T03:48:41.623Z,7.53
2023-04-10T03:51:10.035Z,7.90
2023-04-10T03:53:37.021Z,7.10
2023-04-10T03:56:08.758Z,8.05
2023-04-10T03:58:36.503Z,7.80
2023-04-10T04:01:05.342Z,8.23
2023-04-10T04:03:39.675Z,7.53
2023-04-10T04:06:27.626Z,7.50
2023-04-10T04:09:27.170Z,8.07
2023-04-10T04:12:13.103Z,8.48
2023-04-10T04:15:00.839Z,8.68
2023-04-10T04:17:57.828Z,8.43
2023-04-10T04:20:45.331Z,7.57
2023-04-10T04:23:25.007Z,8.25
2023-04-10T04:26:03.731Z,7.57
2023-04-10T04:28:49.291Z,9.00
2023-04-10T04:31:38.416Z,8.15
2023-04-10T04:34:05.421Z,9.00
2023-04-10T04:36:43.944Z,8.50
2023-04-10T04:39:35.816Z,7.75
2023-04-10T04:42:04.672Z,9.85
2023-04-10T04:44:40.719Z,8.77
2023-04-10T04:47:21.062Z,8.70
2023-04-10T04:50:01.041Z,9.73
2023-04-10T04:52:49.675Z,8.40
2023-04-10T04:55:53.187Z,9.15
2023-04-10T04:58:45.198Z,8.98
2023-04-10T05:01:16.637Z,9.55
2023-04-10T05:03:58.651Z,8.15
2023-04-10T05:06:44.300Z,8.48
2023-04-10T05:09:22.345Z,8.38
2023-04-10T05:12:07.493Z,9.35
2023-04-10T05:14:46.577Z,8.20
2023-04-10T05:17:44.415Z,8.48
2023-04-10T05:20:41.322Z,9.23
2023-04-10T05:23:36.836Z,8.30
2023-04-10T05:26:22.681Z,9.10
2023-04-10T05:29:12.441Z,8.60
2023-04-10T05:31:56.347Z,8.32
2023-04-10T05:34:58.978Z,8.35
2023-04-10T05:37:35.731Z,8.55
2023-04-10T05:40:24.935Z,8.38
2023-04-10T05:43:19.431Z,9.15
2023-04-10T05:46:12.881Z,10.05
2023-04-10T05:48:45.624Z,12.35
2023-04-10T05:51:31.933Z,10.90
2023-04-10T05:54:14.751Z,11.20
2023-04-10T05:57:02.008Z,10.80
2023-04-10T05:59:49.599Z,11.00
2023-04-10T06:02:48.744Z,10.93
2023-04-10T06:05:23.563Z,10.38
2023-04-10T06:07:58.561Z,9.32
2023-04-10T06:10:28.409Z,10.45
2023-04-10T06:12:55.392Z,9.98
2023-04-10T06:15:23.607Z,8.18
2023-04-10T06:17:50.535Z,8.10
2023-04-10T06:20:17.471Z,10.30
2023-04-10T06:22:44.245Z,9.68
2023-04-10T06:25:11.007Z,10.75
2023-04-10T06:27:37.873Z,9.63
2023-04-10T06:30:08.861Z,10.90
2023-04-10T06:32:35.811Z,8.55
2023-04-10T06:37:32.874Z,8.60
2023-04-10T06:40:14.085Z,9.57
2023-04-10T06:42:41.588Z,9.15
2023-04-10T06:45:27.099Z,8.98
2023-04-10T06:50:23.208Z,7.93
2023-04-10T06:52:49.982Z,8.40
2023-04-10T06:55:17.041Z,8.60
2023-04-10T07:00:10.923Z,8.68
2023-04-10T07:02:37.744Z,9.38
2023-04-10T07:05:05.105Z,9.35
2023-04-10T07:07:32.917Z,9.52
2023-04-10T07:09:59.820Z,8.40
2023-04-10T07:12:26.761Z,9.82
2023-04-10T07:14:53.564Z,8.40
2023-04-10T07:17:20.495Z,8.48
2023-04-10T07:22:14.723Z,9.10
2023-04-10T07:24:41.557Z,8.68
2023-04-10T07:27:08.376Z,7.63
2023-04-10T07:29:35.266Z,8.27
2023-04-10T07:32:02.070Z,9.23
2023-04-10T07:34:28.998Z,7.63
2023-04-10T07:39:22.387Z,9.05
2023-04-10T07:41:49.280Z,8.20
2023-04-10T07:44:17.546Z,7.72
2023-04-10T07:46:44.359Z,7.85
2023-04-10T07:49:12.051Z,8.32
2023-04-10T07:51:38.812Z,8.27
2023-04-10T07:54:05.626Z,7.30
2023-04-10T07:56:32.376Z,7.45
2023-04-10T07:59:03.289Z,8.15
2023-04-10T08:01:30.197Z,8.00
2023-04-10T08:06:23.966Z,7.55
2023-04-10T08:08:52.382Z,7.45
2023-04-10T08:11:31.330Z,7.47
2023-04-10T08:14:01.691Z,7.43
2023-04-10T08:16:30.829Z,7.10
2023-04-10T08:18:58.513Z,7.45
2023-04-10T08:21:27.815Z,7.65
2023-04-10T08:23:56.907Z,7.32
2023-04-10T08:26:24.927Z,5.97
2023-04-10T08:28:53.531Z,6.93
2023-04-10T08:31:22.274Z,6.47
2023-04-10T08:33:49.624Z,7.00
2023-04-10T08:36:19.594Z,6.82
2023-04-10T08:38:47.598Z,6.03
2023-04-10T08:41:16.908Z,6.05
2023-04-10T08:43:45.527Z,6.78
2023-04-10T08:46:14.151Z,5.20
2023-04-10T08:48:53.559Z,5.75
2023-04-10T08:51:26.000Z,6.13
2023-04-10T08:53:58.866Z,6.72
2023-04-10T08:56:26.845Z,6.10
2023-04-10T08:58:53.819Z,6.32
2023-04-10T09:01:21.651Z,5.30
2023-04-10T09:03:49.720Z,5.70
2023-04-10T09:06:16.568Z,6.32
2023-04-10T09:08:44.469Z,5.50
2023-04-10T09:11:13.129Z,5.97
2023-04-10T09:13:42.073Z,5.78
2023-04-10T09:16:10.968Z,6.18
2023-04-10T09:18:49.877Z,5.72
2023-04-10T09:21:18.879Z,6.78
2023-04-10T09:23:46.914Z,6.28
2023-04-10T09:26:31.049Z,6.57
2023-04-10T09:28:57.956Z,5.65
2023-04-10T09:31:33.475Z,7.10
2023-04-10T09:34:24.279Z,5.10
2023-04-10T09:36:58.871Z,5.38
2023-04-10T09:39:43.063Z,5.72
2023-04-10T09:42:11.542Z,6.32
2023-04-10T09:44:40.518Z,5.72
2023-04-10T09:47:18.105Z,5.80
2023-04-10T09:50:03.531Z,5.38
2023-04-10T09:52:33.899Z,4.63
2023-04-10T09:55:05.695Z,4.07
2023-04-10T09:57:34.826Z,3.53
2023-04-10T10:00:08.322Z,4.57
2023-04-10T10:02:39.859Z,4.13
2023-04-10T10:05:07.785Z,4.10
2023-04-10T10:07:35.921Z,4.20
2023-04-10T10:10:03.793Z,3.72
2023-04-10T10:12:48.846Z,4.35
2023-04-10T10:15:44.478Z,4.38
2023-04-10T10:18:26.307Z,2.55
2023-04-10T10:20:54.344Z,2.65
2023-04-10T10:23:22.486Z,2.38
2023-04-10T10:25:50.382Z,3.15
2023-04-10T10:28:18.981Z,3.70
2023-04-10T10:30:47.094Z,3.80
2023-04-10T10:33:14.578Z,2.80
2023-04-10T10:35:42.183Z,2.60
2023-04-10T10:38:10.226Z,2.58
2023-04-10T10:41:06.500Z,3.20
2023-04-10T10:43:47.312Z,2.60
2023-04-10T10:46:37.577Z,2.88
2023-04-10T10:49:04.511Z,4.20
2023-04-10T10:51:48.476Z,2.92
2023-04-10T10:54:31.837Z,2.40
2023-04-10T10:56:59.164Z,2.15
2023-04-10T10:59:55.256Z,2.63
2023-04-10T11:02:22.139Z,2.60
2023-04-10T11:04:49.540Z,2.20
2023-04-10T11:07:16.755Z,2.33
2023-04-10T11:09:48.566Z,2.50
2023-04-10T11:12:20.524Z,2.42
2023-04-10T11:14:58.253Z,2.75
2023-04-10T11:17:51.559Z,2.83
2023-04-10T11:20:27.214Z,2.45
2023-04-10T11:23:11.180Z,2.75
2023-04-10T11:25:49.523Z,2.65
2023-04-10T11:28:35.992Z,2.35
2023-04-10T11:31:16.299Z,2.67
2023-04-10T11:33:43.468Z,2.40
2023-04-10T11:36:13.511Z,2.47
2023-04-10T11:38:40.303Z,2.72
2023-04-10T11:41:07.128Z,2.47
2023-04-10T11:43:35.034Z,2.33
2023-04-10T11:46:04.101Z,2.33
2023-04-10T11:48:31.800Z,2.75
2023-04-10T11:51:00.127Z,2.40
2023-04-10T11:53:27.297Z,2.38
2023-04-10T11:55:54.832Z,2.83
2023-04-10T11:58:26.962Z,2.15
2023-04-10T12:01:02.019Z,2.33
2023-04-10T12:03:58.782Z,2.70
2023-04-10T12:06:25.991Z,2.72
2023-04-10T12:08:53.679Z,2.88
2023-04-10T12:11:26.543Z,2.53
2023-04-10T12:13:57.977Z,2.35
2023-04-10T12:16:26.569Z,2.60
2023-04-10T12:18:53.944Z,2.63
2023-04-10T12:21:21.288Z,2.60
2023-04-10T12:23:48.284Z,2.40
2023-04-10T12:26:17.512Z,2.38
2023-04-10T12:28:55.900Z,2.35
2023-04-10T12:31:29.235Z,2.33
2023-04-10T12:33:58.013Z,2.78
2023-04-10T12:36:30.472Z,2.58
2023-04-10T12:38:58.485Z,2.30
2023-04-10T12:41:27.462Z,2.63
2023-04-10T12:44:07.616Z,2.25
2023-04-10T12:46:36.553Z,2.20
2023-04-10T12:49:14.949Z,2.35
2023-04-10T12:51:46.255Z,2.50
2023-04-10T12:54:31.963Z,2.25
2023-04-10T12:56:59.806Z,3.17
2023-04-10T12:59:27.153Z,2.28
2023-04-10T13:01:54.983Z,2.45
2023-04-10T13:04:22.186Z,2.95
2023-04-10T13:06:52.488Z,2.92
2023-04-10T13:09:20.682Z,2.55
2023-04-10T13:11:51.020Z,3.25
2023-04-10T13:14:18.556Z,2.58
2023-04-10T13:16:45.466Z,2.72
2023-04-10T13:19:13.019Z,3.03
2023-04-10T13:21:39.794Z,2.40
2023-04-10T13:24:06.566Z,3.00
2023-04-10T13:26:33.385Z,2.42
2023-04-10T13:29:00.440Z,2.70
2023-04-10T13:31:28.610Z,2.20
2023-04-10T13:33:55.821Z,2.40
2023-04-10T13:36:23.031Z,3.13
2023-04-10T13:38:50.043Z,2.90
2023-04-10T13:41:16.867Z,2.83
2023-04-10T13:43:43.552Z,2.67
2023-04-10T13:46:10.329Z,2.58
2023-04-10T13:48:41.182Z,2.88
2023-04-10T13:51:08.602Z,2.53
2023-04-10T13:53:36.246Z,2.03
2023-04-10T13:56:03.192Z,2.70
2023-04-10T13:58:32.163Z,2.35
2023-04-10T14:00:59.344Z,1.80
2023-04-10T14:03:26.520Z,2.10
2023-04-10T14:05:54.063Z,2.45
2023-04-10T14:08:20.813Z,2.22
2023-04-10T14:10:51.404Z,2.30
2023-04-10T14:13:18.663Z,2.10
2023-04-10T14:15:45.586Z,2.28
2023-04-10T14:18:12.849Z,1.80
2023-04-10T14:20:42.384Z,2.08
2023-04-10T14:23:10.063Z,1.90
2023-04-10T14:25:36.867Z,2.10
2023-04-10T14:28:04.326Z,1.80
2023-04-10T14:30:32.736Z,1.90
2023-04-10T14:32:59.810Z,1.60
2023-04-10T14:35:26.755Z,1.75
2023-04-10T14:37:53.573Z,2.25
2023-04-10T14:40:20.363Z,2.15
2023-04-10T14:42:47.047Z,1.67
2023-04-10T14:45:14.010Z,2.30
2023-04-10T14:47:41.798Z,2.03
2023-04-10T14:50:08.929Z,1.73
2023-04-10T14:52:35.697Z,2.10
2023-04-10T14:55:02.664Z,2.25
2023-04-10T14:57:31.414Z,1.88
2023-04-10T15:00:01.352Z,1.60
2023-04-10T15:02:30.041Z,1.95
2023-04-10T15:04:57.190Z,2.08
2023-04-10T15:07:28.343Z,2.22
2023-04-10T15:09:58.430Z,2.20
2023-04-10T15:12:25.339Z,1.98
2023-04-10T15:14:52.413Z,2.20
2023-04-10T15:17:23.552Z,1.63
2023-04-10T15:19:50.480Z,1.95
2023-04-10T15:22:17.213Z,2.10
2023-04-10T15:24:50.553Z,2.10
2023-04-10T15:27:20.977Z,2.03
2023-04-10T15:29:47.783Z,1.90
2023-04-10T15:32:14.451Z,2.38
2023-04-10T15:34:41.231Z,1.80
2023-04-10T15:37:07.948Z,2.20
2023-04-10T15:39:36.875Z,2.20
2023-04-10T15:42:05.913Z,1.92
2023-04-10T15:44:32.825Z,2.20
2023-04-10T15:46:59.547Z,1.63
2023-04-10T15:49:37.040Z,1.90
2023-04-10T15:52:06.538Z,1.85
2023-04-10T15:54:34.583Z,2.55
2023-04-10T15:57:02.022Z,1.80
2023-04-10T15:59:28.984Z,2.53
2023-04-10T16:01:56.041Z,2.28
2023-04-10T16:04:23.221Z,1.80
2023-04-10T16:06:50.649Z,1.75
2023-04-10T16:11:50.126Z,1.77
2023-04-10T16:14:18.928Z,2.00
2023-04-10T16:16:46.245Z,1.88
2023-04-10T16:19:13.172Z,2.05
2023-04-10T16:21:40.170Z,1.73
2023-04-10T16:24:08.880Z,1.63
2023-04-10T16:26:35.662Z,2.03
2023-04-10T16:29:02.437Z,2.28
2023-04-10T16:31:29.941Z,2.10
2023-04-10T16:33:56.973Z,2.10
2023-04-10T16:36:23.804Z,2.38
2023-04-10T16:38:50.565Z,2.35
2023-04-10T16:41:18.477Z,2.40
2023-04-10T16:43:45.373Z,2.22
2023-04-10T16:46:12.247Z,2.45
2023-04-10T16:48:38.978Z,2.67
2023-04-10T16:53:35.922Z,2.25
2023-04-10T16:56:04.830Z,2.83
2023-04-10T16:58:34.252Z,2.60
2023-04-10T17:01:12.796Z,2.70
2023-04-10T17:03:39.679Z,3.08
2023-04-10T17:06:06.506Z,2.47
2023-04-10T17:08:33.227Z,2.72
2023-04-10T17:13:26.612Z,2.13
2023-04-10T17:15:53.325Z,2.53
2023-04-10T17:20:48.551Z,2.55
2023-04-10T17:23:15.391Z,2.95
2023-04-10T17:25:42.448Z,2.40
2023-04-10T17:28:09.240Z,2.58
2023-04-10T17:33:02.818Z,3.22
2023-04-10T17:37:58.741Z,2.80
2023-04-10T17:40:25.585Z,2.47
2023-04-10T17:42:52.487Z,2.60
2023-04-10T17:45:19.221Z,2.80
2023-04-10T17:50:12.798Z,3.03
2023-04-10T17:55:06.846Z,2.50
2023-04-10T17:57:33.616Z,2.70
2023-04-10T18:02:27.080Z,2.28
2023-04-10T18:07:21.260Z,2.50
2023-04-10T18:12:14.951Z,2.67
2023-04-10T18:17:09.544Z,2.30
2023-04-10T18:22:02.899Z,2.70
2023-04-10T18:26:56.516Z,2.78
2023-04-10T18:29:26.036Z,2.67
2023-04-10T18:31:52.910Z,2.95
2023-04-10T18:36:46.742Z,2.22
2023-04-10T18:39:13.533Z,2.10
2023-04-10T18:44:07.430Z,2.70
2023-04-10T18:46:34.947Z,2.47
2023-04-10T18:49:03.255Z,2.08
2023-04-10T18:51:31.777Z,2.30
2023-04-10T18:53:59.017Z,2.55
2023-04-10T18:56:25.962Z,3.03
2023-04-10T18:58:52.800Z,2.63
2023-04-10T19:03:50.795Z,3.25
2023-04-10T19:06:23.840Z,2.53
2023-04-10T19:08:51.261Z,2.75
2023-04-10T19:11:18.797Z,2.00
2023-04-10T19:13:45.817Z,2.70
2023-04-10T19:16:14.622Z,2.90
2023-04-10T19:18:41.509Z,2.40
2023-04-10T19:23:35.543Z,2.13
2023-04-10T19:26:02.267Z,2.00
2023-04-10T19:30:56.315Z,2.42
2023-04-10T19:33:23.245Z,2.15
2023-04-10T19:35:50.028Z,2.40
2023-04-10T19:40:44.512Z,2.25
2023-04-10T19:43:12.284Z,2.80
2023-04-10T19:45:39.914Z,1.88
2023-04-10T19:48:09.740Z,2.00
2023-04-10T19:50:36.605Z,1.98
2023-04-10T19:53:04.132Z,2.70
2023-04-10T19:55:31.563Z,1.95
2023-04-10T19:57:58.274Z,2.30
2023-04-10T20:00:25.148Z,2.58
2023-04-10T20:05:19.249Z,2.33
2023-04-10T20:07:46.004Z,2.75
2023-04-10T20:10:12.817Z,2.85
2023-04-10T20:12:39.635Z,2.10
2023-04-10T20:17:33.497Z,2.83
2023-04-10T20:20:00.285Z,2.40
2023-04-10T20:22:27.016Z,3.00
2023-04-10T20:24:53.787Z,2.92
2023-04-10T20:29:47.400Z,2.30
2023-04-10T20:34:40.960Z,2.50
2023-04-10T20:39:34.470Z,2.88
2023-04-10T20:44:28.197Z,2.80
2023-04-10T20:49:22.660Z,2.58
2023-04-10T20:51:49.507Z,2.40
2023-04-10T20:54:18.820Z,2.70
2023-04-10T20:56:46.589Z,2.72
2023-04-10T20:59:13.350Z,2.53
2023-04-10T21:04:07.394Z,2.03
2023-04-10T21:06:34.691Z,2.17
2023-04-10T21:09:01.409Z,2.17
2023-04-10T21:11:28.214Z,2.42
2023-04-10T21:16:21.873Z,2.70
2023-04-10T21:21:15.527Z,2.10
2023-04-10T21:23:42.324Z,2.25
2023-04-10T21:28:35.975Z,2.30
2023-04-10T21:31:02.745Z,2.65
2023-04-10T21:33:29.552Z,2.72
2023-04-10T21:38:23.997Z,2.38
2023-04-10T21:40:51.954Z,2.55
2023-04-10T21:43:19.475Z,2.67
2023-04-10T21:45:46.310Z,2.67
2023-04-10T21:48:13.303Z,2.95
2023-04-10T21:50:40.483Z,2.28
2023-04-10T21:53:07.409Z,2.42
2023-04-10T21:55:34.298Z,2.92
2023-04-10T22:00:31.649Z,2.13
2023-04-10T22:02:58.898Z,2.58
2023-04-10T22:05:25.771Z,2.20
2023-04-10T22:10:19.340Z,2.28
2023-04-10T22:12:48.560Z,2.00
2023-04-10T22:15:16.238Z,1.88
2023-04-10T22:17:43.066Z,2.30
2023-04-10T22:22:37.177Z,2.13
2023-04-10T22:25:04.109Z,2.25
2023-04-10T22:27:30.886Z,2.08
2023-04-10T22:32:27.463Z,1.90
2023-04-10T22:34:54.274Z,2.33
2023-04-10T22:39:47.629Z,3.50
2023-04-10T22:42:14.354Z,2.83
2023-04-10T22:44:41.082Z,2.50
2023-04-10T22:47:07.853Z,3.25
2023-04-10T22:49:34.727Z,2.40
2023-04-10T22:52:01.456Z,2.90
2023-04-10T22:54:29.472Z,2.67
2023-04-10T22:56:57.417Z,2.42
2023-04-10T22:59:24.237Z,3.15
2023-04-10T23:01:51.592Z,2.75
2023-04-10T23:04:18.552Z,2.05
2023-04-10T23:09:12.446Z,3.15
2023-04-10T23:14:05.895Z,3.17
2023-04-10T23:16:32.744Z,3.38
2023-04-10T23:21:27.127Z,2.80
2023-04-10T23:23:53.906Z,3.03
2023-04-10T23:26:20.802Z,2.50
2023-04-10T23:31:14.945Z,2.88
2023-04-10T23:33:41.816Z,3.22
2023-04-10T23:38:35.441Z,2.90
2023-04-10T23:43:30.144Z,2.80
2023-04-10T23:48:23.649Z,2.80
2023-04-10T23:53:17.715Z,2.53
2023-04-10T23:55:44.630Z,2.75
